Nearby METAR Reports

 

KHOB - Hobbs, New Mexico, USA
Distance from station: S 40mi, 65km
Updated: Wed, 24-Apr-2024 5:50am MDT
Clear
Clear
 Wind from SW
Wind: SW 7 mph , 11 km/h
Temperature: 52°F , 11°C
Dew Point: 50°F , 10°C
Humidity: 94%
Barometer: 30.03 inHg , 1016.9 hPa
Clouds: Clear
Visibility: 10 miles , 16 km
2024/04/24 11:50 KHOB 241150Z 23006KT 10SM CLR 11/10 A3003
KGNC - Seminole, Texas, USA
Distance from station: SE 55mi, 89km
Updated: Wed, 24-Apr-2024 6:15am MDT
Clear
Clear
 Wind from calm
Wind: Calm
Temperature: 57°F , 14°C
Dew Point: 55°F , 13°C
Humidity: 94%
Barometer: 30.06 inHg , 1017.9 hPa
Clouds: Clear
Visibility: 10 miles , 16 km
2024/04/24 12:15 KGNC 241215Z AUTO 00000KT 10SM CLR 14/13 A3006 RMK AO2 T01360128
 
KROW - Roswell, New Mexico, USA
Distance from station: W 67mi, 108km
Updated: Wed, 24-Apr-2024 5:51am MDT
Clear
Clear
 Wind from NNW
Wind: NNW 14 mph , 22 km/h
Temperature: 59°F , 15°C
Dew Point: 48°F , 9°C
Humidity: 68%
Barometer: 30.03 inHg , 1016.9 hPa
Clouds: Clear
Visibility: 10 miles , 16 km
2024/04/24 11:51 KROW 241151Z 33012KT 10SM CLR 15/09 A3003 RMK AO2 SLP105 T01500094 10211 20144 50022
KATS - Artesia, New Mexico, USA
Distance from station: WSW 71mi, 114km
Updated: Wed, 24-Apr-2024 6:15am MDT
Clear
Clear
 Wind from NNW
Wind: NNW 13 mph , 20 km/h
Temperature: 59°F , 15°C
Dew Point: 48°F , 9°C
Humidity: 68%
Barometer: 30.07 inHg , 1018.3 hPa
Clouds: Clear
Visibility: 10 miles , 16 km
2024/04/24 12:15 KATS 241215Z AUTO 34011KT 10SM CLR 15/09 A3007 RMK AO2
 
KCVS - Cannon AFB,Clovis, New Mexico, USA
Distance from station: 0 78mi, 125km
Updated: Wed, 24-Apr-2024 6:25am MDT
Overcast
Overcast
 Wind from NNE
Wind: NNE 12 mph , 19 km/h
Temperature: 52°F , 11°C
Dew Point: 48°F , 9°C
Humidity: 88%
Barometer: 30.10 inHg , 1019.3 hPa
Clouds: Overcast
Visibility: 10 miles , 16 km
Cloud details: Overcast 900 ft
2024/04/24 12:25 KCVS 241225Z AUTO 02010KT 10SM OVC009 11/09 A3010 RMK AO2 SLP147 FZRANO CHINO RWY22 $
KE11 - Andrews, Texas, USA
Distance from station: SE 78mi, 126km
Updated: Wed, 24-Apr-2024 6:15am MDT
Clear
Clear
 Wind from S
Wind: S 5 mph , 7 km/h
Temperature: 59°F , 15°C
Dew Point: 59°F , 15°C
Humidity: 100%
Barometer: 30.01 inHg , 1016.3 hPa
Clouds: Clear
Visibility: 10 miles , 16 km
2024/04/24 12:15 KE11 241215Z AUTO 18004KT 10SM CLR 15/15 A3001 RMK AO2 T01460146
 
KCNM - Carlsbad, New Mexico, USA
Distance from station: SW 82mi, 132km
Updated: Wed, 24-Apr-2024 5:53am MDT
Clear
Clear
 Wind from NNW
Wind: NNW 6 mph , 9 km/h
Temperature: 61°F , 16°C
Dew Point: 39°F , 4°C
Humidity: 45%
Barometer: 30.03 inHg , 1016.9 hPa
Clouds: Clear
Visibility: 10 miles , 16 km
2024/04/24 11:53 KCNM 241153Z AUTO 33005KT 10SM CLR 16/04 A3003 RMK AO2 SLP116 T01610044 10228 20133 51023
KCVN - Clovis Muni, New Mexico, USA
Distance from station: N 83mi, 133km
Updated: Wed, 24-Apr-2024 5:56am MDT
Mostly cloudy
Mostly cloudy
 Wind from NE
Wind: NE 10 mph , 17 km/h
Temperature: 48°F , 9°C
Wind Chill: 44°F , 7°C
Dew Point: 48°F , 9°C
Humidity: 100%
Barometer: 30.10 inHg , 1019.3 hPa
Clouds: Mostly cloudy
Visibility: 10 miles , 16 km
Cloud details: Mostly cloudy 800 ft
2024/04/24 11:56 KCVN 241156Z AUTO 05009KT 10SM BKN008 09/09 A3010 RMK AO2 SLP166 T00940094 10139 20089 51007
 
KLBB - Lubbock, Texas, USA
Distance from station: ENE 92mi, 149km
Updated: Wed, 24-Apr-2024 6:28am MDT
Mist, Few clouds
Mist, Few clouds
 Wind from NE
Wind: NE 12 mph , 19 km/h
Temperature: 55°F , 13°C
Dew Point: 54°F , 12°C
Humidity: 94%
Barometer: 30.06 inHg , 1017.9 hPa
Summary: Mist
Clouds: Few Clouds
Visibility: 1 1/4 miles , 2 km
Cloud details: Few Clouds 500 ft
Few Clouds 1000 ft
2024/04/24 12:28 KLBB 241228Z 04010KT 1 1/4SM R17R/1200VP6000FT BR FEW005 FEW010 13/12 A3006 RMK AO2 VIS N 1 1/2 FG BNK N BR ALQDS T01280117
KINK - Wink, Texas, USA
Distance from station: S 101mi, 163km
Updated: Wed, 24-Apr-2024 5:53am MDT
Clear
Clear
 Wind from S
Wind: S 5 mph , 7 km/h
Temperature: 61°F , 16°C
Dew Point: 57°F , 14°C
Humidity: 88%
Barometer: 29.97 inHg , 1014.9 hPa
Clouds: Clear
Visibility: 10 miles , 16 km
2024/04/24 11:53 KINK 241153Z AUTO 17004KT 10SM CLR 16/14 A2997 RMK AO2 SLP104 T01610144 10222 20161 51013
 
KMAF - Midland, Texas, USA
Distance from station: SE 111mi, 179km
Updated: Wed, 24-Apr-2024 5:53am MDT
Clear
Clear
 Wind from S
Wind: S 13 mph , 20 km/h
Temperature: 63°F , 17°C
Dew Point: 61°F , 16°C
Humidity: 94%
Barometer: 29.99 inHg , 1015.6 hPa
Clouds: Clear
Visibility: 10 miles , 16 km
2024/04/24 11:53 KMAF 241153Z 18011KT 10SM CLR 17/16 A2999 RMK AO2 SLP112 70002 T01670156 10200 20161 51004 $
KSRR - Sierra B/Ruidoso, New Mexico, USA
Distance from station: W 127mi, 204km
Updated: Wed, 24-Apr-2024 6:15am MDT
Clear
Clear
 Wind from NNW
Wind: NNW 3 mph , 6 km/h
Temperature: 50°F , 10°C
Dew Point: 36°F , 2°C
Humidity: 58%
Barometer: 30.21 inHg , 1023 hPa
Clouds: Clear
Visibility: 10 miles , 16 km
2024/04/24 12:15 KSRR 241215Z AUTO 33003KT 10SM CLR 10/02 A3021 RMK AO2
 
KGDP - Guadalupe Pass, Texas, USA
Distance from station: SW 130mi, 209km
Updated: Sun, 10-Dec-2023 5:51pm MST
NOT Current

 Wind from SW
Wind: SW 31 mph , 50 km/h
Temperature: 41°F , 5°C
Wind Chill: 30°F , -1°C
Dew Point: 9°F , -13°C
Humidity: 26%
Barometer: 30.20 inHg , 1022.7 hPa
Visibility: 10 miles , 16 km
2023/12/11 00:51 KGDP 110051Z AUTO 23027KT 10SM 05/M13 A3020 RMK AO2 PK WND 25038/0000 SLP229 T00501133 $